createdAt,value
2022-09-27T00:04:01.921Z,24
2022-09-27T00:09:20.378Z,24
2022-09-27T00:14:38.853Z,24
2022-09-27T00:19:57.404Z,24
2022-09-27T00:25:15.589Z,24
2022-09-27T00:30:33.503Z,23.9
2022-09-27T00:35:52.031Z,24
2022-09-27T00:41:10.940Z,24
2022-09-27T00:46:29.533Z,24
2022-09-27T00:51:47.603Z,24
2022-09-27T00:57:05.774Z,24
2022-09-27T01:02:24.732Z,24
2022-09-27T01:07:43.042Z,24
2022-09-27T01:13:01.506Z,24
2022-09-27T01:18:20.001Z,24
2022-09-27T01:23:38.798Z,24
2022-09-27T01:28:57.246Z,24
2022-09-27T01:34:15.747Z,24
2022-09-27T01:39:34.392Z,24
2022-09-27T01:44:52.584Z,24
2022-09-27T01:50:11.063Z,24
2022-09-27T01:55:29.587Z,24
2022-09-27T02:00:47.487Z,24
2022-09-27T02:06:05.702Z,24
2022-09-27T02:11:24.247Z,24
2022-09-27T02:16:42.718Z,24
2022-09-27T02:22:01.207Z,24
2022-09-27T02:27:19.993Z,24
2022-09-27T02:32:38.453Z,24
2022-09-27T02:37:57.226Z,24
2022-09-27T02:43:16.021Z,24
2022-09-27T02:48:34.767Z,24
2022-09-27T02:53:52.989Z,24
2022-09-27T02:59:11.513Z,24
2022-09-27T03:04:29.981Z,24
2022-09-27T03:09:48.211Z,24
2022-09-27T03:15:06.701Z,24.1
2022-09-27T03:20:25.173Z,24
2022-09-27T03:25:43.390Z,24
2022-09-27T03:31:01.811Z,24.1
2022-09-27T03:36:19.944Z,24
2022-09-27T03:41:38.444Z,24
2022-09-27T03:46:56.676Z,24
2022-09-27T03:52:15.153Z,24.1
2022-09-27T03:57:33.928Z,24
2022-09-27T04:02:52.694Z,24
2022-09-27T04:08:11.036Z,24
2022-09-27T04:13:29.237Z,24
2022-09-27T04:18:47.748Z,24
2022-09-27T04:24:05.656Z,24
2022-09-27T04:29:24.146Z,24
2022-09-27T04:34:46.393Z,23.8
2022-09-27T04:40:04.637Z,23.7
2022-09-27T04:45:23.131Z,23.6
2022-09-27T04:50:41.088Z,23.7
2022-09-27T04:55:59.534Z,23.7
2022-09-27T05:01:17.535Z,23.8
2022-09-27T05:06:36.096Z,23.8
2022-09-27T05:11:54.553Z,23.8
2022-09-27T05:17:12.785Z,23.8
2022-09-27T05:22:31.083Z,23.8
2022-09-27T05:27:49.821Z,23.8
2022-09-27T05:33:08.304Z,23.8
2022-09-27T05:38:10.915Z,23.8
2022-09-27T05:43:29.662Z,23.9
2022-09-27T05:48:48.426Z,23.9
2022-09-27T05:54:07.225Z,23.9
2022-09-27T05:59:25.973Z,23.9
2022-09-27T06:04:44.463Z,23.9
2022-09-27T06:10:02.959Z,23.9
2022-09-27T06:15:21.411Z,23.9
2022-09-27T06:20:39.621Z,23.9
2022-09-27T06:25:41.963Z,23.9
2022-09-27T06:30:59.955Z,23.8
2022-09-27T06:36:18.543Z,23.8
2022-09-27T06:41:37.041Z,23.8
2022-09-27T06:46:55.790Z,23.9
2022-09-27T06:51:58.648Z,23.8
2022-09-27T06:57:17.163Z,23.8
2022-09-27T07:02:35.332Z,23.7
2022-09-27T07:07:53.524Z,23.5
2022-09-27T07:13:12.310Z,23.3
2022-09-27T07:18:30.474Z,23.2
2022-09-27T07:23:49.228Z,23.1
2022-09-27T07:29:08.119Z,23.1
2022-09-27T07:34:26.664Z,23.2
2022-09-27T07:39:45.130Z,23.1
2022-09-27T07:45:09.208Z,23
2022-09-27T07:50:27.793Z,22.9
2022-09-27T07:55:46.008Z,22.9
2022-09-27T08:01:04.641Z,22.8
2022-09-27T08:06:22.782Z,22.8
2022-09-27T08:11:41.274Z,22.8
2022-09-27T08:16:59.804Z,23
2022-09-27T08:22:18.541Z,23.1
2022-09-27T08:27:36.747Z,23.2
2022-09-27T08:32:55.267Z,23.2
2022-09-27T08:38:14.011Z,23.3
2022-09-27T08:43:32.218Z,23.3
2022-09-27T08:48:51.621Z,23.4
2022-09-27T08:54:10.404Z,23.4
2022-09-27T08:59:28.880Z,23.4
2022-09-27T09:04:47.692Z,23.5
2022-09-27T09:10:06.150Z,23.5
2022-09-27T09:15:24.640Z,23.5
2022-09-27T09:20:43.427Z,23.5
2022-09-27T09:26:01.331Z,23.6
2022-09-27T09:31:19.940Z,23.6
2022-09-27T09:36:38.418Z,23.6
2022-09-27T09:41:56.318Z,23.6
2022-09-27T09:47:14.803Z,23.7
2022-09-27T09:52:33.062Z,23.7
2022-09-27T09:57:51.255Z,23.7
2022-09-27T10:03:09.740Z,23.7
2022-09-27T10:08:28.252Z,23.7
2022-09-27T10:13:46.711Z,23.7
2022-09-27T10:19:05.201Z,23.7
2022-09-27T10:24:25.048Z,23.7
2022-09-27T10:29:44.115Z,23.7
2022-09-27T10:35:02.891Z,23.8
2022-09-27T10:40:22.076Z,23.8
2022-09-27T10:45:40.912Z,23.8
2022-09-27T10:51:00.035Z,23.8
2022-09-27T10:56:18.829Z,23.8
2022-09-27T11:01:37.290Z,23.9
2022-09-27T11:06:56.062Z,23.9
2022-09-27T11:12:14.869Z,24
2022-09-27T11:17:33.049Z,24
2022-09-27T11:22:51.281Z,24
2022-09-27T11:28:09.638Z,24
2022-09-27T11:33:27.830Z,24
2022-09-27T11:38:54.004Z,24
2022-09-27T11:44:15.005Z,24
2022-09-27T11:49:33.194Z,24.1
2022-09-27T11:54:51.699Z,24.1
2022-09-27T12:00:09.943Z,24.1
2022-09-27T12:05:28.679Z,24
2022-09-27T12:10:47.164Z,24
2022-09-27T12:16:05.820Z,24
2022-09-27T12:21:24.203Z,24
2022-09-27T12:26:42.985Z,24
2022-09-27T12:32:01.883Z,24
2022-09-27T12:37:20.306Z,24
2022-09-27T12:42:39.076Z,24
2022-09-27T12:47:57.644Z,24
2022-09-27T12:53:16.487Z,24
2022-09-27T12:58:35.267Z,24
2022-09-27T13:03:53.216Z,24
2022-09-27T13:09:12.075Z,24
2022-09-27T13:14:30.776Z,24
2022-09-27T13:19:49.304Z,24
2022-09-27T13:25:08.043Z,24
2022-09-27T13:30:26.265Z,24
2022-09-27T13:35:44.530Z,24
2022-09-27T13:41:03.212Z,24.1
2022-09-27T13:46:21.539Z,24.1
2022-09-27T13:51:39.815Z,24
2022-09-27T13:56:57.716Z,24
2022-09-27T14:02:16.041Z,24
2022-09-27T14:07:33.985Z,24
2022-09-27T14:12:52.170Z,24
2022-09-27T14:18:10.921Z,24
2022-09-27T14:23:29.435Z,24
2022-09-27T14:28:47.623Z,24
2022-09-27T14:34:06.099Z,24
2022-09-27T14:39:24.601Z,24
2022-09-27T14:44:43.073Z,23.9
2022-09-27T14:50:01.863Z,23.9
2022-09-27T14:55:20.370Z,23.9
2022-09-27T15:00:38.852Z,24
2022-09-27T15:05:57.028Z,24
2022-09-27T15:11:14.985Z,24
2022-09-27T15:16:33.212Z,23.9
2022-09-27T15:21:51.392Z,23.9
2022-09-27T15:27:09.613Z,23.9
2022-09-27T15:32:27.513Z,23.9
